sensor_id;sensor_type;location;lat;lon;timestamp;temperature;humidity
43665;DHT22;29263;48.172;11.484;2023-08-17T00:01:24;19.40;99.90
43665;DHT22;29263;48.172;11.484;2023-08-17T00:03:50;19.30;99.90
43665;DHT22;29263;48.172;11.484;2023-08-17T00:06:15;19.30;99.90
43665;DHT22;29263;48.172;11.484;2023-08-17T00:08:42;19.20;99.90
43665;DHT22;29263;48.172;11.484;2023-08-17T00:11:08;19.20;99.90
43665;DHT22;29263;48.172;11.484;2023-08-17T00:13:34;19.10;99.90
43665;DHT22;29263;48.172;11.484;2023-08-17T00:16:00;19.10;99.90
43665;DHT22;29263;48.172;11.484;2023-08-17T00:18:25;19.10;99.90
43665;DHT22;29263;48.172;11.484;2023-08-17T00:20:51;19.00;99.90
43665;DHT22;29263;48.172;11.484;2023-08-17T00:23:17;19.00;99.90
43665;DHT22;29263;48.172;11.484;2023-08-17T00:25:43;18.90;99.90
43665;DHT22;29263;48.172;11.484;2023-08-17T00:28:09;18.90;99.90
43665;DHT22;29263;48.172;11.484;2023-08-17T00:30:34;18.90;99.90
43665;DHT22;29263;48.172;11.484;2023-08-17T00:33:02;18.80;99.90
43665;DHT22;29263;48.172;11.484;2023-08-17T00:35:28;18.80;99.90
43665;DHT22;29263;48.172;11.484;2023-08-17T00:37:53;18.80;99.90
43665;DHT22;29263;48.172;11.484;2023-08-17T00:40:19;18.80;99.90
43665;DHT22;29263;48.172;11.484;2023-08-17T00:42:45;18.80;99.90
43665;DHT22;29263;48.172;11.484;2023-08-17T00:45:11;18.80;99.90
43665;DHT22;29263;48.172;11.484;2023-08-17T00:47:36;18.80;99.90
43665;DHT22;29263;48.172;11.484;2023-08-17T00:50:03;18.80;99.90
43665;DHT22;29263;48.172;11.484;2023-08-17T00:52:30;18.90;99.90
43665;DHT22;29263;48.172;11.484;2023-08-17T00:54:58;18.80;99.90
43665;DHT22;29263;48.172;11.484;2023-08-17T00:57:24;18.80;99.90
43665;DHT22;29263;48.172;11.484;2023-08-17T00:59:51;18.70;99.90
43665;DHT22;29263;48.172;11.484;2023-08-17T01:02:17;18.70;99.90
43665;DHT22;29263;48.172;11.484;2023-08-17T01:04:43;18.70;99.90
43665;DHT22;29263;48.172;11.484;2023-08-17T01:07:08;18.70;99.90
43665;DHT22;29263;48.172;11.484;2023-08-17T01:09:34;18.70;99.90
43665;DHT22;29263;48.172;11.484;2023-08-17T01:12:29;18.70;99.90
43665;DHT22;29263;48.172;11.484;2023-08-17T01:17:58;18.70;99.90
43665;DHT22;29263;48.172;11.484;2023-08-17T01:20:26;18.70;99.90
43665;DHT22;29263;48.172;11.484;2023-08-17T01:22:54;18.70;99.90
43665;DHT22;29263;48.172;11.484;2023-08-17T01:25:22;18.70;99.90
43665;DHT22;29263;48.172;11.484;2023-08-17T01:27:48;18.70;99.90
43665;DHT22;29263;48.172;11.484;2023-08-17T01:30:16;18.60;99.90
43665;DHT22;29263;48.172;11.484;2023-08-17T01:32:57;18.60;99.90
43665;DHT22;29263;48.172;11.484;2023-08-17T01:35:46;18.60;99.90
43665;DHT22;29263;48.172;11.484;2023-08-17T01:38:16;18.50;99.90
43665;DHT22;29263;48.172;11.484;2023-08-17T01:40:44;18.40;99.90
43665;DHT22;29263;48.172;11.484;2023-08-17T01:43:11;18.40;99.90
43665;DHT22;29263;48.172;11.484;2023-08-17T01:45:37;18.40;99.90
43665;DHT22;29263;48.172;11.484;2023-08-17T01:48:03;18.40;99.90
43665;DHT22;29263;48.172;11.484;2023-08-17T01:50:29;18.50;99.90
43665;DHT22;29263;48.172;11.484;2023-08-17T01:52:54;18.40;99.90
43665;DHT22;29263;48.172;11.484;2023-08-17T01:55:21;18.40;99.90
43665;DHT22;29263;48.172;11.484;2023-08-17T01:57:47;18.40;99.90
43665;DHT22;29263;48.172;11.484;2023-08-17T02:00:13;18.40;99.90
43665;DHT22;29263;48.172;11.484;2023-08-17T02:02:39;18.40;99.90
43665;DHT22;29263;48.172;11.484;2023-08-17T02:05:05;18.40;99.90
43665;DHT22;29263;48.172;11.484;2023-08-17T02:07:31;18.30;99.90
43665;DHT22;29263;48.172;11.484;2023-08-17T02:09:56;18.20;99.90
43665;DHT22;29263;48.172;11.484;2023-08-17T02:12:22;18.20;99.90
43665;DHT22;29263;48.172;11.484;2023-08-17T02:14:47;18.20;99.90
43665;DHT22;29263;48.172;11.484;2023-08-17T02:17:13;18.10;99.90
43665;DHT22;29263;48.172;11.484;2023-08-17T02:19:42;18.10;99.90
43665;DHT22;29263;48.172;11.484;2023-08-17T02:22:07;18.10;99.90
43665;DHT22;29263;48.172;11.484;2023-08-17T02:24:33;18.10;99.90
43665;DHT22;29263;48.172;11.484;2023-08-17T02:26:58;18.10;99.90
43665;DHT22;29263;48.172;11.484;2023-08-17T02:29:24;18.10;99.90
43665;DHT22;29263;48.172;11.484;2023-08-17T02:31:50;18.00;99.90
43665;DHT22;29263;48.172;11.484;2023-08-17T02:34:15;18.00;99.90
43665;DHT22;29263;48.172;11.484;2023-08-17T02:36:41;18.00;99.90
43665;DHT22;29263;48.172;11.484;2023-08-17T02:39:07;18.00;99.90
43665;DHT22;29263;48.172;11.484;2023-08-17T02:41:32;18.00;99.90
43665;DHT22;29263;48.172;11.484;2023-08-17T02:43:58;18.00;99.90
43665;DHT22;29263;48.172;11.484;2023-08-17T02:46:23;18.10;99.90
43665;DHT22;29263;48.172;11.484;2023-08-17T02:48:49;18.10;99.90
43665;DHT22;29263;48.172;11.484;2023-08-17T02:51:16;18.00;99.90
43665;DHT22;29263;48.172;11.484;2023-08-17T02:53:41;18.00;99.90
43665;DHT22;29263;48.172;11.484;2023-08-17T02:56:07;18.00;99.90
43665;DHT22;29263;48.172;11.484;2023-08-17T02:58:35;18.00;99.90
43665;DHT22;29263;48.172;11.484;2023-08-17T03:01:02;18.00;99.90
43665;DHT22;29263;48.172;11.484;2023-08-17T03:03:28;18.00;99.90
43665;DHT22;29263;48.172;11.484;2023-08-17T03:05:54;18.00;99.90
43665;DHT22;29263;48.172;11.484;2023-08-17T03:08:20;17.90;99.90
43665;DHT22;29263;48.172;11.484;2023-08-17T03:10:45;17.90;99.90
43665;DHT22;29263;48.172;11.484;2023-08-17T03:13:11;17.90;99.90
43665;DHT22;29263;48.172;11.484;2023-08-17T03:15:36;17.90;99.90
43665;DHT22;29263;48.172;11.484;2023-08-17T03:18:05;17.90;99.90
43665;DHT22;29263;48.172;11.484;2023-08-17T03:20:31;17.90;99.90
43665;DHT22;29263;48.172;11.484;2023-08-17T03:22:56;17.90;99.90
43665;DHT22;29263;48.172;11.484;2023-08-17T03:25:22;17.90;99.90
43665;DHT22;29263;48.172;11.484;2023-08-17T03:27:48;17.90;99.90
43665;DHT22;29263;48.172;11.484;2023-08-17T03:30:13;17.90;99.90
43665;DHT22;29263;48.172;11.484;2023-08-17T03:32:39;17.80;99.90
43665;DHT22;29263;48.172;11.484;2023-08-17T03:35:06;17.90;99.90
43665;DHT22;29263;48.172;11.484;2023-08-17T03:37:32;17.80;99.90
43665;DHT22;29263;48.172;11.484;2023-08-17T03:39:57;17.70;99.90
43665;DHT22;29263;48.172;11.484;2023-08-17T03:42:23;17.80;99.90
43665;DHT22;29263;48.172;11.484;2023-08-17T03:44:48;17.70;99.90
43665;DHT22;29263;48.172;11.484;2023-08-17T03:47:14;17.80;99.90
43665;DHT22;29263;48.172;11.484;2023-08-17T03:49:40;17.70;99.90
43665;DHT22;29263;48.172;11.484;2023-08-17T03:52:06;17.70;99.90
43665;DHT22;29263;48.172;11.484;2023-08-17T03:54:31;17.60;99.90
43665;DHT22;29263;48.172;11.484;2023-08-17T03:56:57;17.70;99.90
43665;DHT22;29263;48.172;11.484;2023-08-17T03:59:22;17.70;99.90
43665;DHT22;29263;48.172;11.484;2023-08-17T04:01:50;17.70;99.90
43665;DHT22;29263;48.172;11.484;2023-08-17T04:04:15;17.70;99.90
43665;DHT22;29263;48.172;11.484;2023-08-17T04:06:41;17.60;99.90
43665;DHT22;29263;48.172;11.484;2023-08-17T04:09:06;17.60;99.90
43665;DHT22;29263;48.172;11.484;2023-08-17T04:11:35;17.60;99.90
43665;DHT22;29263;48.172;11.484;2023-08-17T04:14:02;17.60;99.90
43665;DHT22;29263;48.172;11.484;2023-08-17T04:16:27;17.60;99.90
43665;DHT22;29263;48.172;11.484;2023-08-17T04:18:53;17.60;99.90
43665;DHT22;29263;48.172;11.484;2023-08-17T04:21:18;17.50;99.90
43665;DHT22;29263;48.172;11.484;2023-08-17T04:23:44;17.50;99.90
43665;DHT22;29263;48.172;11.484;2023-08-17T04:26:09;17.50;99.90
43665;DHT22;29263;48.172;11.484;2023-08-17T04:28:35;17.50;99.90
43665;DHT22;29263;48.172;11.484;2023-08-17T04:31:00;17.50;99.90
43665;DHT22;29263;48.172;11.484;2023-08-17T04:33:26;17.50;99.90
43665;DHT22;29263;48.172;11.484;2023-08-17T04:35:52;17.50;99.90
43665;DHT22;29263;48.172;11.484;2023-08-17T04:38:17;17.50;99.90
43665;DHT22;29263;48.172;11.484;2023-08-17T04:40:43;17.40;99.90
43665;DHT22;29263;48.172;11.484;2023-08-17T04:43:10;17.40;99.90
43665;DHT22;29263;48.172;11.484;2023-08-17T04:45:36;17.40;99.90
43665;DHT22;29263;48.172;11.484;2023-08-17T04:48:01;17.40;99.90
43665;DHT22;29263;48.172;11.484;2023-08-17T04:50:27;17.50;99.90
43665;DHT22;29263;48.172;11.484;2023-08-17T04:52:53;17.50;99.90
43665;DHT22;29263;48.172;11.484;2023-08-17T04:55:18;17.50;99.90
43665;DHT22;29263;48.172;11.484;2023-08-17T04:57:44;17.50;99.90
43665;DHT22;29263;48.172;11.484;2023-08-17T05:00:10;17.50;99.90
43665;DHT22;29263;48.172;11.484;2023-08-17T05:02:37;17.50;99.90
43665;DHT22;29263;48.172;11.484;2023-08-17T05:05:06;17.60;99.90
43665;DHT22;29263;48.172;11.484;2023-08-17T05:07:32;17.60;99.90
43665;DHT22;29263;48.172;11.484;2023-08-17T05:09:58;17.60;99.90
43665;DHT22;29263;48.172;11.484;2023-08-17T05:12:23;17.60;99.90
43665;DHT22;29263;48.172;11.484;2023-08-17T05:14:49;17.70;99.90
43665;DHT22;29263;48.172;11.484;2023-08-17T05:17:14;17.70;99.90
43665;DHT22;29263;48.172;11.484;2023-08-17T05:19:40;17.60;99.90
43665;DHT22;29263;48.172;11.484;2023-08-17T05:22:11;17.70;99.90
43665;DHT22;29263;48.172;11.484;2023-08-17T05:24:36;17.80;99.90
43665;DHT22;29263;48.172;11.484;2023-08-17T05:27:02;17.80;99.90
43665;DHT22;29263;48.172;11.484;2023-08-17T05:29:28;17.90;99.90
43665;DHT22;29263;48.172;11.484;2023-08-17T05:31:53;18.00;99.90
43665;DHT22;29263;48.172;11.484;2023-08-17T05:34:19;18.00;99.90
43665;DHT22;29263;48.172;11.484;2023-08-17T05:36:44;18.10;99.90
43665;DHT22;29263;48.172;11.484;2023-08-17T05:39:10;18.20;99.90
43665;DHT22;29263;48.172;11.484;2023-08-17T05:41:36;18.30;99.90
43665;DHT22;29263;48.172;11.484;2023-08-17T05:44:02;18.40;99.90
43665;DHT22;29263;48.172;11.484;2023-08-17T05:46:28;18.50;99.90
43665;DHT22;29263;48.172;11.484;2023-08-17T05:48:53;18.60;99.90
43665;DHT22;29263;48.172;11.484;2023-08-17T05:51:19;18.70;99.90
43665;DHT22;29263;48.172;11.484;2023-08-17T05:53:44;18.80;99.90
43665;DHT22;29263;48.172;11.484;2023-08-17T05:56:10;18.90;99.90
43665;DHT22;29263;48.172;11.484;2023-08-17T05:58:36;19.10;99.90
43665;DHT22;29263;48.172;11.484;2023-08-17T06:01:08;19.20;99.90
43665;DHT22;29263;48.172;11.484;2023-08-17T06:03:35;19.40;99.90
43665;DHT22;29263;48.172;11.484;2023-08-17T06:06:01;19.50;99.90
43665;DHT22;29263;48.172;11.484;2023-08-17T06:08:27;19.60;99.90
43665;DHT22;29263;48.172;11.484;2023-08-17T06:10:53;19.80;99.90
43665;DHT22;29263;48.172;11.484;2023-08-17T06:13:19;19.90;99.90
43665;DHT22;29263;48.172;11.484;2023-08-17T06:15:44;20.00;99.90
43665;DHT22;29263;48.172;11.484;2023-08-17T06:18:10;20.20;99.90
43665;DHT22;29263;48.172;11.484;2023-08-17T06:20:36;20.30;99.90
43665;DHT22;29263;48.172;11.484;2023-08-17T06:23:01;20.40;99.90
43665;DHT22;29263;48.172;11.484;2023-08-17T06:25:27;20.60;99.90
43665;DHT22;29263;48.172;11.484;2023-08-17T06:27:52;20.70;99.90
43665;DHT22;29263;48.172;11.484;2023-08-17T06:30:18;20.80;99.90
43665;DHT22;29263;48.172;11.484;2023-08-17T06:32:44;21.00;99.90
43665;DHT22;29263;48.172;11.484;2023-08-17T06:35:10;21.20;99.90
43665;DHT22;29263;48.172;11.484;2023-08-17T06:37:35;21.30;99.90
43665;DHT22;29263;48.172;11.484;2023-08-17T06:40:03;21.50;99.90
43665;DHT22;29263;48.172;11.484;2023-08-17T06:42:28;21.60;99.90
43665;DHT22;29263;48.172;11.484;2023-08-17T06:44:54;21.70;99.90
43665;DHT22;29263;48.172;11.484;2023-08-17T06:47:20;21.90;99.90
43665;DHT22;29263;48.172;11.484;2023-08-17T06:49:45;22.00;99.90
43665;DHT22;29263;48.172;11.484;2023-08-17T06:52:11;22.10;99.90
43665;DHT22;29263;48.172;11.484;2023-08-17T06:54:36;22.30;99.90
43665;DHT22;29263;48.172;11.484;2023-08-17T06:57:02;22.40;99.90
43665;DHT22;29263;48.172;11.484;2023-08-17T06:59:28;22.50;99.90
43665;DHT22;29263;48.172;11.484;2023-08-17T07:01:53;22.70;99.90
43665;DHT22;29263;48.172;11.484;2023-08-17T07:04:19;22.80;99.90
43665;DHT22;29263;48.172;11.484;2023-08-17T07:06:44;22.90;99.90
43665;DHT22;29263;48.172;11.484;2023-08-17T07:09:10;23.10;99.90
43665;DHT22;29263;48.172;11.484;2023-08-17T07:11:38;23.20;99.90
43665;DHT22;29263;48.172;11.484;2023-08-17T07:14:04;23.30;99.90
43665;DHT22;29263;48.172;11.484;2023-08-17T07:16:31;23.40;99.90
43665;DHT22;29263;48.172;11.484;2023-08-17T07:18:57;23.50;99.90
43665;DHT22;29263;48.172;11.484;2023-08-17T07:21:23;23.60;99.90
43665;DHT22;29263;48.172;11.484;2023-08-17T07:23:50;23.70;99.90
43665;DHT22;29263;48.172;11.484;2023-08-17T07:26:16;23.70;99.90
43665;DHT22;29263;48.172;11.484;2023-08-17T07:28:41;23.80;99.90
43665;DHT22;29263;48.172;11.484;2023-08-17T07:31:07;24.00;99.90
43665;DHT22;29263;48.172;11.484;2023-08-17T07:33:32;24.10;99.90
43665;DHT22;29263;48.172;11.484;2023-08-17T07:35:58;24.20;99.90
43665;DHT22;29263;48.172;11.484;2023-08-17T07:38:24;24.30;99.90
43665;DHT22;29263;48.172;11.484;2023-08-17T07:40:49;24.30;99.90
43665;DHT22;29263;48.172;11.484;2023-08-17T07:43:15;24.40;99.90
43665;DHT22;29263;48.172;11.484;2023-08-17T07:45:40;24.60;98.90
43665;DHT22;29263;48.172;11.484;2023-08-17T07:48:06;24.60;99.40
43665;DHT22;29263;48.172;11.484;2023-08-17T07:50:32;24.80;98.60
43665;DHT22;29263;48.172;11.484;2023-08-17T07:52:57;24.90;98.30
43665;DHT22;29263;48.172;11.484;2023-08-17T07:55:23;25.00;98.40
43665;DHT22;29263;48.172;11.484;2023-08-17T07:57:49;25.20;97.80
43665;DHT22;29263;48.172;11.484;2023-08-17T08:00:15;25.20;97.90
43665;DHT22;29263;48.172;11.484;2023-08-17T08:02:40;25.40;98.00
43665;DHT22;29263;48.172;11.484;2023-08-17T08:05:06;25.30;97.30
43665;DHT22;29263;48.172;11.484;2023-08-17T08:07:32;25.50;97.30
43665;DHT22;29263;48.172;11.484;2023-08-17T08:09:57;25.50;95.80
43665;DHT22;29263;48.172;11.484;2023-08-17T08:12:23;25.50;96.20
43665;DHT22;29263;48.172;11.484;2023-08-17T08:14:49;25.60;95.80
43665;DHT22;29263;48.172;11.484;2023-08-17T08:17:16;25.60;95.50
43665;DHT22;29263;48.172;11.484;2023-08-17T08:19:42;25.70;96.60
43665;DHT22;29263;48.172;11.484;2023-08-17T08:22:07;25.80;96.20
43665;DHT22;29263;48.172;11.484;2023-08-17T08:24:33;26.00;96.30
43665;DHT22;29263;48.172;11.484;2023-08-17T08:27:00;26.00;96.20
43665;DHT22;29263;48.172;11.484;2023-08-17T08:29:26;26.10;95.80
43665;DHT22;29263;48.172;11.484;2023-08-17T08:31:52;26.20;95.00
43665;DHT22;29263;48.172;11.484;2023-08-17T08:34:18;26.30;95.40
43665;DHT22;29263;48.172;11.484;2023-08-17T08:36:44;26.30;94.60
43665;DHT22;29263;48.172;11.484;2023-08-17T08:39:10;26.40;94.40
43665;DHT22;29263;48.172;11.484;2023-08-17T08:41:37;26.40;93.60
43665;DHT22;29263;48.172;11.484;2023-08-17T08:44:04;26.50;93.00
43665;DHT22;29263;48.172;11.484;2023-08-17T08:46:32;26.40;94.10
43665;DHT22;29263;48.172;11.484;2023-08-17T08:48:59;26.50;94.30
43665;DHT22;29263;48.172;11.484;2023-08-17T08:51:28;26.60;93.90
43665;DHT22;29263;48.172;11.484;2023-08-17T08:54:01;26.70;92.70
43665;DHT22;29263;48.172;11.484;2023-08-17T08:56:33;26.70;92.90
43665;DHT22;29263;48.172;11.484;2023-08-17T08:59:02;26.80;93.10
43665;DHT22;29263;48.172;11.484;2023-08-17T09:01:32;27.00;94.00
43665;DHT22;29263;48.172;11.484;2023-08-17T09:03:59;27.10;93.20
43665;DHT22;29263;48.172;11.484;2023-08-17T09:06:27;27.10;92.90
43665;DHT22;29263;48.172;11.484;2023-08-17T09:08:52;27.20;93.10
43665;DHT22;29263;48.172;11.484;2023-08-17T09:11:18;27.30;92.80
43665;DHT22;29263;48.172;11.484;2023-08-17T09:13:44;27.40;92.40
43665;DHT22;29263;48.172;11.484;2023-08-17T09:16:10;27.50;92.70
43665;DHT22;29263;48.172;11.484;2023-08-17T09:18:35;27.50;92.10
43665;DHT22;29263;48.172;11.484;2023-08-17T09:21:01;27.60;92.00
43665;DHT22;29263;48.172;11.484;2023-08-17T09:23:27;27.70;91.50
43665;DHT22;29263;48.172;11.484;2023-08-17T09:25:52;27.70;91.90
43665;DHT22;29263;48.172;11.484;2023-08-17T09:28:23;27.70;91.80
43665;DHT22;29263;48.172;11.484;2023-08-17T09:30:59;27.70;92.50
43665;DHT22;29263;48.172;11.484;2023-08-17T09:33:28;27.70;91.00
43665;DHT22;29263;48.172;11.484;2023-08-17T09:35:55;27.80;90.40
43665;DHT22;29263;48.172;11.484;2023-08-17T09:38:22;27.80;91.30
43665;DHT22;29263;48.172;11.484;2023-08-17T09:40:48;27.80;90.90
43665;DHT22;29263;48.172;11.484;2023-08-17T09:43:15;27.80;90.90
43665;DHT22;29263;48.172;11.484;2023-08-17T09:45:43;27.80;90.50
43665;DHT22;29263;48.172;11.484;2023-08-17T09:48:17;27.80;90.40
43665;DHT22;29263;48.172;11.484;2023-08-17T09:50:44;27.90;90.20
43665;DHT22;29263;48.172;11.484;2023-08-17T09:53:14;27.90;90.10
43665;DHT22;29263;48.172;11.484;2023-08-17T09:55:44;28.00;88.00
43665;DHT22;29263;48.172;11.484;2023-08-17T09:58:14;28.00;90.30
43665;DHT22;29263;48.172;11.484;2023-08-17T10:00:47;28.00;90.50
43665;DHT22;29263;48.172;11.484;2023-08-17T10:03:15;28.00;90.20
43665;DHT22;29263;48.172;11.484;2023-08-17T10:05:43;28.00;90.40
43665;DHT22;29263;48.172;11.484;2023-08-17T10:08:11;27.90;90.50
43665;DHT22;29263;48.172;11.484;2023-08-17T10:10:42;27.90;89.30
43665;DHT22;29263;48.172;11.484;2023-08-17T10:13:13;27.90;88.30
43665;DHT22;29263;48.172;11.484;2023-08-17T10:15:48;27.90;89.10
43665;DHT22;29263;48.172;11.484;2023-08-17T10:21:02;28.00;90.60
43665;DHT22;29263;48.172;11.484;2023-08-17T10:23:30;28.10;89.00
43665;DHT22;29263;48.172;11.484;2023-08-17T10:25:56;28.00;88.00
43665;DHT22;29263;48.172;11.484;2023-08-17T10:28:23;28.00;87.60
43665;DHT22;29263;48.172;11.484;2023-08-17T10:30:50;28.10;90.00
43665;DHT22;29263;48.172;11.484;2023-08-17T10:33:16;28.10;89.80
43665;DHT22;29263;48.172;11.484;2023-08-17T10:35:42;28.20;89.30
43665;DHT22;29263;48.172;11.484;2023-08-17T10:38:09;28.30;89.10
43665;DHT22;29263;48.172;11.484;2023-08-17T10:40:35;28.40;89.10
43665;DHT22;29263;48.172;11.484;2023-08-17T10:43:01;28.50;90.00
43665;DHT22;29263;48.172;11.484;2023-08-17T10:45:29;28.50;89.60
43665;DHT22;29263;48.172;11.484;2023-08-17T10:50:37;28.20;88.30
43665;DHT22;29263;48.172;11.484;2023-08-17T10:53:12;28.20;89.20
43665;DHT22;29263;48.172;11.484;2023-08-17T10:55:40;28.30;88.90
43665;DHT22;29263;48.172;11.484;2023-08-17T10:58:06;28.30;90.20
43665;DHT22;29263;48.172;11.484;2023-08-17T11:00:38;28.20;89.80
43665;DHT22;29263;48.172;11.484;2023-08-17T11:13:29;28.00;88.70
43665;DHT22;29263;48.172;11.484;2023-08-17T11:15:58;28.00;89.40
43665;DHT22;29263;48.172;11.484;2023-08-17T11:18:23;28.00;88.30
43665;DHT22;29263;48.172;11.484;2023-08-17T11:20:49;28.10;89.20
43665;DHT22;29263;48.172;11.484;2023-08-17T11:23:16;28.30;90.30
43665;DHT22;29263;48.172;11.484;2023-08-17T11:25:42;28.50;89.30
43665;DHT22;29263;48.172;11.484;2023-08-17T11:28:09;28.80;87.00
43665;DHT22;29263;48.172;11.484;2023-08-17T11:30:35;29.10;86.10
43665;DHT22;29263;48.172;11.484;2023-08-17T11:33:03;29.30;86.80
43665;DHT22;29263;48.172;11.484;2023-08-17T11:35:29;29.50;85.70
43665;DHT22;29263;48.172;11.484;2023-08-17T11:37:54;29.70;84.50
43665;DHT22;29263;48.172;11.484;2023-08-17T11:40:20;29.70;82.00
43665;DHT22;29263;48.172;11.484;2023-08-17T11:42:46;29.80;84.30
43665;DHT22;29263;48.172;11.484;2023-08-17T11:45:12;29.90;83.70
43665;DHT22;29263;48.172;11.484;2023-08-17T11:47:39;29.90;83.40
43665;DHT22;29263;48.172;11.484;2023-08-17T11:50:06;29.90;81.50
43665;DHT22;29263;48.172;11.484;2023-08-17T11:52:33;29.90;83.80
43665;DHT22;29263;48.172;11.484;2023-08-17T11:54:59;29.70;80.20
43665;DHT22;29263;48.172;11.484;2023-08-17T11:57:26;29.60;82.40
43665;DHT22;29263;48.172;11.484;2023-08-17T11:59:58;29.60;82.70
43665;DHT22;29263;48.172;11.484;2023-08-17T12:02:26;29.60;79.60
43665;DHT22;29263;48.172;11.484;2023-08-17T12:04:52;29.60;81.30
43665;DHT22;29263;48.172;11.484;2023-08-17T12:07:18;29.50;82.00
43665;DHT22;29263;48.172;11.484;2023-08-17T12:09:48;29.60;82.00
43665;DHT22;29263;48.172;11.484;2023-08-17T12:12:18;29.60;81.00
43665;DHT22;29263;48.172;11.484;2023-08-17T12:14:45;29.80;80.10
43665;DHT22;29263;48.172;11.484;2023-08-17T12:17:15;29.70;82.00
43665;DHT22;29263;48.172;11.484;2023-08-17T12:19:44;29.80;81.10
43665;DHT22;29263;48.172;11.484;2023-08-17T12:22:13;29.80;80.40
43665;DHT22;29263;48.172;11.484;2023-08-17T12:24:39;29.90;81.40
43665;DHT22;29263;48.172;11.484;2023-08-17T12:27:06;29.80;81.20
43665;DHT22;29263;48.172;11.484;2023-08-17T12:29:31;29.90;80.10
43665;DHT22;29263;48.172;11.484;2023-08-17T12:31:58;29.80;79.90
43665;DHT22;29263;48.172;11.484;2023-08-17T12:34:25;29.90;79.70
43665;DHT22;29263;48.172;11.484;2023-08-17T12:36:50;29.90;79.00
43665;DHT22;29263;48.172;11.484;2023-08-17T12:39:16;29.90;78.50
43665;DHT22;29263;48.172;11.484;2023-08-17T12:41:42;29.90;76.70
43665;DHT22;29263;48.172;11.484;2023-08-17T12:44:09;29.90;77.10
43665;DHT22;29263;48.172;11.484;2023-08-17T12:46:41;29.90;76.10
43665;DHT22;29263;48.172;11.484;2023-08-17T12:49:07;29.90;75.80
43665;DHT22;29263;48.172;11.484;2023-08-17T12:51:33;29.80;76.80
43665;DHT22;29263;48.172;11.484;2023-08-17T12:53:58;29.90;77.90
43665;DHT22;29263;48.172;11.484;2023-08-17T12:56:24;29.90;76.00
43665;DHT22;29263;48.172;11.484;2023-08-17T12:58:50;29.90;75.00
43665;DHT22;29263;48.172;11.484;2023-08-17T13:01:15;29.90;75.60
43665;DHT22;29263;48.172;11.484;2023-08-17T13:03:41;29.90;76.40
43665;DHT22;29263;48.172;11.484;2023-08-17T13:06:07;29.90;75.30
43665;DHT22;29263;48.172;11.484;2023-08-17T13:08:33;29.90;74.80
43665;DHT22;29263;48.172;11.484;2023-08-17T13:10:58;29.80;76.30
43665;DHT22;29263;48.172;11.484;2023-08-17T13:13:24;29.80;76.50
43665;DHT22;29263;48.172;11.484;2023-08-17T13:15:49;29.90;73.90
43665;DHT22;29263;48.172;11.484;2023-08-17T13:18:15;29.90;71.80
43665;DHT22;29263;48.172;11.484;2023-08-17T13:20:41;29.90;73.10
43665;DHT22;29263;48.172;11.484;2023-08-17T13:23:06;30.00;72.30
43665;DHT22;29263;48.172;11.484;2023-08-17T13:25:32;30.00;70.70
43665;DHT22;29263;48.172;11.484;2023-08-17T13:27:58;30.10;69.00
43665;DHT22;29263;48.172;11.484;2023-08-17T13:30:23;30.20;66.80
43665;DHT22;29263;48.172;11.484;2023-08-17T13:32:50;30.30;68.20
43665;DHT22;29263;48.172;11.484;2023-08-17T13:35:15;30.40;65.50
43665;DHT22;29263;48.172;11.484;2023-08-17T13:37:41;30.50;65.60
43665;DHT22;29263;48.172;11.484;2023-08-17T13:40:07;30.70;67.10
43665;DHT22;29263;48.172;11.484;2023-08-17T13:42:33;30.80;66.40
43665;DHT22;29263;48.172;11.484;2023-08-17T13:44:59;31.00;67.20
43665;DHT22;29263;48.172;11.484;2023-08-17T13:47:25;31.20;67.40
43665;DHT22;29263;48.172;11.484;2023-08-17T13:49:51;31.20;64.70
43665;DHT22;29263;48.172;11.484;2023-08-17T13:52:17;31.10;64.30
43665;DHT22;29263;48.172;11.484;2023-08-17T13:54:43;30.80;65.90
43665;DHT22;29263;48.172;11.484;2023-08-17T13:57:08;30.50;66.00
43665;DHT22;29263;48.172;11.484;2023-08-17T13:59:34;30.20;66.10
43665;DHT22;29263;48.172;11.484;2023-08-17T14:02:00;30.10;64.70
43665;DHT22;29263;48.172;11.484;2023-08-17T14:04:25;30.10;65.30
43665;DHT22;29263;48.172;11.484;2023-08-17T14:06:51;30.00;66.80
43665;DHT22;29263;48.172;11.484;2023-08-17T14:09:17;29.90;65.50
43665;DHT22;29263;48.172;11.484;2023-08-17T14:11:43;29.90;66.10
43665;DHT22;29263;48.172;11.484;2023-08-17T14:14:08;29.90;68.90
43665;DHT22;29263;48.172;11.484;2023-08-17T14:16:35;30.00;65.30
43665;DHT22;29263;48.172;11.484;2023-08-17T14:19:01;30.10;63.00
43665;DHT22;29263;48.172;11.484;2023-08-17T14:21:27;30.20;64.70
43665;DHT22;29263;48.172;11.484;2023-08-17T14:23:52;30.40;62.60
43665;DHT22;29263;48.172;11.484;2023-08-17T14:26:18;30.50;60.30
43665;DHT22;29263;48.172;11.484;2023-08-17T14:28:43;30.60;60.50
43665;DHT22;29263;48.172;11.484;2023-08-17T14:31:09;30.80;61.90
43665;DHT22;29263;48.172;11.484;2023-08-17T14:33:37;31.00;62.50
43665;DHT22;29263;48.172;11.484;2023-08-17T14:36:03;31.20;64.20
43665;DHT22;29263;48.172;11.484;2023-08-17T14:38:28;31.30;63.80
43665;DHT22;29263;48.172;11.484;2023-08-17T14:40:54;31.60;65.50
43665;DHT22;29263;48.172;11.484;2023-08-17T14:43:20;31.70;68.20
43665;DHT22;29263;48.172;11.484;2023-08-17T14:45:45;31.50;70.10
43665;DHT22;29263;48.172;11.484;2023-08-17T14:48:11;31.40;70.70
43665;DHT22;29263;48.172;11.484;2023-08-17T14:50:37;31.70;70.30
43665;DHT22;29263;48.172;11.484;2023-08-17T14:53:04;31.90;70.10
43665;DHT22;29263;48.172;11.484;2023-08-17T14:55:33;31.70;68.50
43665;DHT22;29263;48.172;11.484;2023-08-17T14:57:59;31.50;68.30
43665;DHT22;29263;48.172;11.484;2023-08-17T15:00:25;31.30;66.80
43665;DHT22;29263;48.172;11.484;2023-08-17T15:02:53;31.10;68.30
43665;DHT22;29263;48.172;11.484;2023-08-17T15:05:18;30.90;67.40
43665;DHT22;29263;48.172;11.484;2023-08-17T15:07:44;30.80;68.90
43665;DHT22;29263;48.172;11.484;2023-08-17T15:10:10;30.70;67.00
43665;DHT22;29263;48.172;11.484;2023-08-17T15:12:35;30.60;67.00
43665;DHT22;29263;48.172;11.484;2023-08-17T15:15:02;30.50;67.50
43665;DHT22;29263;48.172;11.484;2023-08-17T15:17:27;30.30;68.50
43665;DHT22;29263;48.172;11.484;2023-08-17T15:19:53;30.10;70.20
43665;DHT22;29263;48.172;11.484;2023-08-17T15:22:19;29.90;71.40
43665;DHT22;29263;48.172;11.484;2023-08-17T15:24:45;29.70;71.50
43665;DHT22;29263;48.172;11.484;2023-08-17T15:27:12;29.60;72.10
43665;DHT22;29263;48.172;11.484;2023-08-17T15:29:38;29.50;72.50